Time;durP1;ratioP1;P1;durP2;ratioP2;P2;SDS_P1;SDS_P2;PMS_P1;PMS_P2;Temp;Humidity;BMP_temperature;BMP_pressure;BME280_temperature;BME280_humidity;BME280_pressure;Samples;Min_cycle;Max_cycle;Signal;HPM_P1;HPM_P2
2022/12/12 00:01:16;;;;;;;76.75;70.25;;;;;;;2.81;100.00;99819.59;5017163;28;20517;-85
2022/12/12 00:03:43;;;;;;;83.35;76.13;;;;;;;2.79;100.00;99815.53;4979111;28;20141;-86
2022/12/12 00:06:10;;;;;;;70.03;63.88;;;;;;;2.76;100.00;99811.47;4979220;28;20054;-84
2022/12/12 00:08:42;;;;;;;76.82;70.25;;;;;;;3.29;100.00;99835.06;4966858;28;20051;-85
2022/12/12 00:11:09;;;;;;;;;;;;;;;2.66;100.00;99844.97;4975826;28;20051;-86
2022/12/12 00:14:02;;;;;;;84.78;77.38;;;;;;;2.83;100.00;99845.66;4978417;28;19926;-85
2022/12/12 00:16:39;;;;;;;;;;;;;;;2.64;100.00;99849.59;4964135;28;20464;-84
2022/12/12 00:19:08;;;;;;;75.97;69.13;;;;;;;2.49;100.00;99852.94;4978932;28;19922;-85
2022/12/12 00:21:59;;;;;;;74.07;67.45;;;;;;;2.54;100.00;99844.56;4978513;28;20479;-86
2022/12/12 00:24:28;;;;;;;70.10;63.55;;;;;;;2.44;100.00;99841.34;4963863;28;20042;-85
2022/12/12 00:26:56;;;;;;;77.13;70.53;;;;;;;2.60;100.00;99843.84;4978709;28;20403;-85
2022/12/12 00:29:34;;;;;;;80.60;73.57;;;;;;;2.55;100.00;99851.44;4978963;28;20059;-84
2022/12/12 00:32:12;;;;;;;90.47;82.95;;;;;;;2.44;100.00;99850.03;4978293;28;20125;-86
2022/12/12 00:34:57;;;;;;;78.10;71.38;;;;;;;2.42;100.00;99843.31;4964156;28;20050;-85
2022/12/12 00:37:29;;;;;;;85.43;78.03;;;;;;;2.48;100.00;99856.56;4978762;28;20047;-85
2022/12/12 00:40:36;;;;;;;79.07;72.18;;;;;;;2.59;100.00;99847.47;4979551;28;20055;-84
2022/12/12 00:43:15;;;;;;;82.25;75.28;;;;;;;2.46;100.00;99842.00;4979193;28;20054;-85
2022/12/12 00:45:42;;;;;;;77.10;70.25;;;;;;;2.43;100.00;99840.53;4967012;28;20063;-85
2022/12/12 00:48:17;;;;;;;81.78;74.65;;;;;;;2.27;100.00;99833.63;4960086;28;20106;-85
2022/12/12 00:51:21;;;;;;;88.70;81.18;;;;;;;2.31;100.00;99862.09;4959455;28;20055;-86
2022/12/12 00:53:51;;;;;;;84.60;77.55;;;;;;;2.53;100.00;99848.16;4959185;28;20051;-86
2022/12/12 00:56:25;;;;;;;85.85;78.72;;;;;;;2.37;100.00;99862.22;4977647;28;20054;-85
2022/12/12 00:58:58;;;;;;;101.35;93.30;;;;;;;2.48;100.00;99874.94;4961702;28;20055;-85
2022/12/12 01:01:28;;;;;;;80.20;72.88;;;;;;;2.35;100.00;99876.47;4989272;23;20077;-91
2022/12/12 01:03:54;;;;;;;93.30;85.65;;;;;;;2.43;100.00;99879.06;4983009;28;20054;-91
2022/12/12 01:06:22;;;;;;;73.82;67.13;;;;;;;2.21;100.00;99885.88;4983974;28;20464;-91
2022/12/12 01:08:49;;;;;;;82.68;75.88;;;;;;;2.27;100.00;99870.28;4990790;28;20496;-91
2022/12/12 01:11:17;;;;;;;76.00;69.68;;;;;;;2.22;100.00;99888.31;4985947;28;20352;-91
2022/12/12 01:13:47;;;;;;;71.10;64.80;;;;;;;2.26;100.00;99892.22;4984333;28;20058;-91
2022/12/12 01:16:15;;;;;;;95.80;88.15;;;;;;;2.25;100.00;99877.50;4985175;28;20104;-91
2022/12/12 01:18:42;;;;;;;77.10;70.63;;;;;;;2.24;100.00;99872.41;4978040;28;20121;-91
2022/12/12 01:21:10;;;;;;;81.93;74.95;;;;;;;2.31;100.00;99876.00;4991503;28;20046;-91
2022/12/12 01:23:37;;;;;;;78.38;71.88;;;;;;;2.35;100.00;99873.84;4988049;28;20050;-92
2022/12/12 01:26:06;;;;;;;76.22;69.55;;;;;;;3.57;100.00;99864.13;4985618;28;20046;-91
2022/12/12 01:28:34;;;;;;;74.38;67.70;;;;;;;2.38;100.00;99870.88;4980195;28;20055;-91
2022/12/12 01:31:01;;;;;;;80.80;73.93;;;;;;;2.31;100.00;99877.81;4982531;28;20058;-91
2022/12/12 01:33:32;;;;;;;82.50;75.63;;;;;;;2.29;100.00;99884.03;4983591;28;20098;-91
2022/12/12 01:35:59;;;;;;;91.32;84.20;;;;;;;2.62;100.00;99883.03;4974423;28;20057;-91
2022/12/12 01:38:26;;;;;;;85.32;78.18;;;;;;;2.32;100.00;99889.91;4979332;28;20047;-91
2022/12/12 01:40:54;;;;;;;88.93;81.72;;;;;;;2.26;100.00;99883.56;4979902;28;20047;-91
2022/12/12 01:43:24;;;;;;;82.70;75.80;;;;;;;2.29;100.00;99902.38;4980479;28;20058;-91
2022/12/12 01:46:35;;;;;;;92.03;84.65;;;;;;;2.43;100.00;99905.25;4983321;28;20047;-91
2022/12/12 01:49:12;;;;;;;91.60;84.22;;;;;;;2.50;100.00;99916.69;4983192;28;20050;-91
2022/12/12 01:51:40;;;;;;;88.22;81.03;;;;;;;2.29;100.00;99919.91;4975183;28;20105;-91
2022/12/12 01:54:10;;;;;;;101.05;93.07;;;;;;;2.27;100.00;99911.41;4982925;28;20058;-92
2022/12/12 01:56:41;;;;;;;93.95;86.65;;;;;;;2.42;100.00;99921.97;4983725;28;20054;-91
2022/12/12 01:59:12;;;;;;;90.13;83.18;;;;;;;2.39;100.00;99930.16;4989182;28;20046;-92
2022/12/12 02:01:40;;;;;;;82.90;76.20;;;;;;;2.40;100.00;99931.81;4989441;28;20061;-92
2022/12/12 02:04:11;;;;;;;83.15;76.15;;;;;;;2.59;100.00;99933.19;4990792;28;20038;-91
2022/12/12 02:06:39;;;;;;;80.32;73.53;;;;;;;2.52;100.00;99930.44;4996743;28;20050;-91
2022/12/12 02:09:11;;;;;;;88.53;81.15;;;;;;;2.52;100.00;99920.75;4989774;28;20051;-91
2022/12/12 02:11:43;;;;;;;88.80;81.47;;;;;;;2.49;100.00;99921.09;4987497;28;20108;-91
2022/12/12 02:14:16;;;;;;;93.05;85.70;;;;;;;2.37;100.00;99919.88;4992772;28;20047;-91
2022/12/12 02:17:24;;;;;;;93.80;86.53;;;;;;;3.00;100.00;99925.88;4988097;28;20043;-91
2022/12/12 02:20:17;;;;;;;72.03;65.97;;;;;;;2.72;100.00;99915.91;4990484;28;20467;-91
2022/12/12 02:23:03;;;;;;;80.57;74.22;;;;;;;2.31;100.00;99907.44;4993095;28;20468;-90
2022/12/12 02:26:06;;;;;;;89.75;82.75;;;;;;;2.40;100.00;99918.72;4982257;28;20051;-91
2022/12/12 02:29:13;;;;;;;96.18;88.65;;;;;;;2.45;100.00;99932.09;4960225;28;20126;-91
2022/12/12 02:31:50;;;;;;;90.97;83.60;;;;;;;2.35;100.00;99923.63;4990855;28;20109;-91
2022/12/12 02:34:29;;;;;;;82.72;75.97;;;;;;;2.38;100.00;99936.41;4993934;28;20049;-91
2022/12/12 02:37:07;;;;;;;85.72;78.75;;;;;;;2.49;100.00;99936.03;4996386;28;20042;-91
2022/12/12 02:39:44;;;;;;;96.45;88.95;;;;;;;2.70;100.00;99935.41;4992363;28;20116;-91
2022/12/12 02:42:21;;;;;;;89.70;82.68;;;;;;;2.57;100.00;99919.41;4993668;28;20106;-90
2022/12/12 02:44:56;;;;;;;83.22;76.55;;;;;;;2.56;100.00;99915.97;4988821;28;20054;-91
2022/12/12 02:47:29;;;;;;;92.95;86.25;;;;;;;2.68;100.00;99917.22;4989722;28;20100;-91
2022/12/12 02:50:02;;;;;;;79.72;74.13;;;;;;;2.74;100.00;99900.78;4994697;28;20058;-91
2022/12/12 02:52:29;;;;;;;90.05;83.10;;;;;;;2.71;100.00;99913.44;4993910;28;20098;-91
2022/12/12 02:54:58;;;;;;;84.60;78.32;;;;;;;2.73;100.00;99907.03;4981889;28;20508;-91
2022/12/12 02:57:26;;;;;;;89.70;83.03;;;;;;;2.69;100.00;99923.28;4985789;28;20061;-91
2022/12/12 02:59:56;;;;;;;79.93;73.43;;;;;;;2.52;100.00;99917.34;4989849;28;20073;-91
2022/12/12 12:04:12;;;;;;;63.70;59.35;;;;;;;10.40;100.00;100290.09;4968150;28;20105;-82
2022/12/12 12:06:57;;;;;;;64.85;60.47;;;;;;;9.95;100.00;100279.53;4969819;28;20468;-80
2022/12/12 12:09:36;;;;;;;63.30;59.30;;;;;;;9.57;100.00;100279.50;4971893;28;20058;-83
2022/12/12 12:12:10;;;;;;;60.65;56.75;;;;;;;9.63;100.00;100282.13;4970686;28;20047;-78
2022/12/12 12:14:51;;;;;;;61.30;57.50;;;;;;;10.47;100.00;100280.28;4973680;28;20050;-82
2022/12/12 12:17:31;;;;;;;61.92;58.03;;;;;;;10.01;100.00;100280.53;4968666;28;20106;-79
2022/12/12 12:20:12;;;;;;;58.50;54.50;;;;;;;9.23;100.00;100288.56;4967546;28;20063;-82
2022/12/12 12:22:51;;;;;;;57.55;53.95;;;;;;;12.82;100.00;100275.41;4970059;28;20059;-83
2022/12/12 12:25:31;;;;;;;59.83;55.80;;;;;;;13.58;100.00;100272.78;4972738;28;20458;-83
2022/12/12 12:28:14;;;;;;;57.92;54.25;;;;;;;12.28;100.00;100270.09;4971790;28;20051;-82
2022/12/12 12:30:54;;;;;;;59.88;55.97;;;;;;;12.02;100.00;100260.66;4966904;28;20058;-80
2022/12/12 12:33:38;;;;;;;60.40;56.70;;;;;;;13.38;100.00;100251.88;4968402;28;20078;-83
2022/12/12 12:36:14;;;;;;;65.55;61.55;;;;;;;14.08;99.55;100254.25;4963080;28;20062;-82
2022/12/12 12:38:55;;;;;;;59.75;56.13;;;;;;;13.69;99.06;100253.28;4965415;28;20051;-84
2022/12/12 12:41:49;;;;;;;57.88;54.38;;;;;;;13.34;100.00;100256.81;4962407;28;20097;-79
2022/12/12 12:44:29;;;;;;;58.38;54.67;;;;;;;13.46;100.00;100264.81;4965854;28;20052;-84
2022/12/12 12:47:08;;;;;;;57.33;53.75;;;;;;;12.15;100.00;100257.00;4970348;28;20051;-82
2022/12/12 12:49:41;;;;;;;59.55;55.85;;;;;;;10.67;100.00;100264.16;4972733;28;20098;-82
2022/12/12 12:52:16;;;;;;;59.63;56.03;;;;;;;11.16;100.00;100267.78;4963474;28;20046;-79
2022/12/12 12:54:47;;;;;;;60.83;57.13;;;;;;;10.81;100.00;100258.75;4969568;28;20047;-83
2022/12/12 12:57:19;;;;;;;57.50;53.90;;;;;;;9.84;100.00;100254.50;4963452;28;20125;-82
2022/12/12 12:59:49;;;;;;;59.13;55.30;;;;;;;8.41;100.00;100264.19;4966005;28;20058;-84
2022/12/12 13:02:26;;;;;;;63.03;58.97;;;;;;;9.56;100.00;100256.66;4957586;28;20050;-82
2022/12/12 13:05:02;;;;;;;60.03;56.22;;;;;;;8.65;100.00;100255.66;4959037;28;20135;-82
2022/12/12 13:07:41;;;;;;;60.03;56.33;;;;;;;8.56;100.00;100262.16;4962642;28;20050;-78
2022/12/12 13:10:21;;;;;;;59.70;56.00;;;;;;;8.69;100.00;100246.28;4971372;28;20503;-82
2022/12/12 13:12:53;;;;;;;60.65;56.75;;;;;;;8.22;100.00;100240.09;4968816;28;20050;-78
2022/12/12 13:15:24;;;;;;;;;;;;;;;8.16;100.00;100238.28;4970731;28;20049;-81
2022/12/12 13:17:58;;;;;;;62.65;58.78;;;;;;;8.74;100.00;100235.06;4963182;28;19922;-78
2022/12/12 13:20:26;;;;;;;62.70;58.80;;;;;;;7.60;100.00;100233.28;4969698;28;20047;-83
2022/12/12 13:23:10;;;;;;;58.30;54.75;;;;;;;7.96;100.00;100243.53;4973350;28;20042;-82
2022/12/12 13:25:47;;;;;;;55.47;51.88;;;;;;;7.48;100.00;100243.59;4969995;28;20121;-81
2022/12/12 13:28:18;;;;;;;57.17;53.72;;;;;;;7.29;100.00;100245.13;4966487;28;20519;-82
2022/12/12 13:31:05;;;;;;;58.00;54.17;;;;;;;7.26;100.00;100232.31;4967408;28;20066;-79
2022/12/12 13:33:43;;;;;;;57.70;53.67;;;;;;;6.99;100.00;100233.16;4974548;28;20444;-78
2022/12/12 13:36:16;;;;;;;62.03;57.60;;;;;;;7.17;100.00;100237.94;4962671;28;20082;-78
2022/12/12 13:38:51;;;;;;;65.32;60.55;;;;;;;6.86;100.00;100239.97;4969701;28;20125;-81
2022/12/12 13:41:18;;;;;;;57.78;53.65;;;;;;;7.04;100.00;100234.22;4964583;28;20117;-82
2022/12/12 13:43:47;;;;;;;59.13;55.03;;;;;;;6.81;100.00;100238.97;4962803;28;20114;-78
2022/12/12 13:46:41;;;;;;;57.47;54.00;;;;;;;6.36;100.00;100238.41;4963272;28;20720;-84
2022/12/12 13:49:18;;;;;;;58.50;54.53;;;;;;;6.65;100.00;100246.13;4934153;28;20051;-78
2022/12/12 13:51:46;;;;;;;56.38;52.80;;;;;;;6.55;100.00;100250.13;4958100;28;20459;-82
2022/12/12 13:54:53;;;;;;;58.05;54.45;;;;;;;6.19;100.00;100258.94;4968839;28;20050;-83
2022/12/12 14:00:20;;;;;;;57.58;53.80;;;;;;;6.45;100.00;100262.84;5121606;27;20422;-79
2022/12/12 14:03:06;;;;;;;58.90;55.00;;;;;;;6.43;100.00;100268.28;5121666;27;20128;-79
2022/12/12 14:05:40;;;;;;;60.60;56.60;;;;;;;6.35;100.00;100271.84;5116415;28;20060;-77
2022/12/12 14:08:21;;;;;;;59.90;55.97;;;;;;;6.13;100.00;100284.22;5117849;28;20403;-77
2022/12/12 14:10:54;;;;;;;59.25;55.15;;;;;;;6.15;100.00;100276.94;5111703;28;20052;-78
2022/12/12 14:13:44;;;;;;;55.33;51.78;;;;;;;6.05;100.00;100271.19;5115578;28;20368;-81
2022/12/12 14:16:27;;;;;;;53.55;50.15;;;;;;;5.85;100.00;100270.91;5113312;27;20051;-81
2022/12/12 14:18:58;;;;;;;;;;;;;;;5.81;100.00;100266.19;5114779;27;20047;-82
2022/12/12 14:21:41;;;;;;;53.53;50.22;;;;;;;5.99;100.00;100279.00;5124310;28;19919;-79
2022/12/12 14:24:54;;;;;;;54.55;51.10;;;;;;;5.90;100.00;100281.72;5127293;28;20532;-83
2022/12/12 14:27:55;;;;;;;55.47;51.97;;;;;;;5.82;100.00;100273.13;5114745;27;20545;-79
2022/12/12 14:30:23;;;;;;;55.65;52.10;;;;;;;5.79;100.00;100271.66;5104157;28;20052;-78
2022/12/12 14:33:01;;;;;;;55.13;51.55;;;;;;;5.77;100.00;100272.84;5110112;28;20048;-81
2022/12/12 14:35:40;;;;;;;54.53;50.85;;;;;;;5.82;100.00;100262.56;5105205;28;20124;-83
2022/12/12 14:38:20;;;;;;;52.75;49.35;;;;;;;5.78;100.00;100274.47;5121466;28;20494;-81
2022/12/12 14:40:49;;;;;;;55.75;51.78;;;;;;;5.65;100.00;100268.03;5114253;28;20121;-77
2022/12/12 14:43:21;;;;;;;56.72;53.10;;;;;;;5.64;100.00;100252.44;5125222;27;20154;-78
2022/12/12 14:46:02;;;;;;;55.37;51.63;;;;;;;5.56;100.00;100269.16;5125013;27;20063;-82
2022/12/12 14:48:31;;;;;;;55.63;51.88;;;;;;;5.42;100.00;100262.91;5109640;28;20055;-78
2022/12/12 14:51:10;;;;;;;56.83;53.13;;;;;;;5.41;100.00;100260.44;5119609;28;20123;-78
2022/12/12 14:53:46;;;;;;;56.17;52.47;;;;;;;5.49;100.00;100248.00;5124132;27;20081;-81
2022/12/12 14:56:15;;;;;;;57.72;53.35;;;;;;;5.39;100.00;100249.31;5122807;27;20054;-82
2022/12/12 14:58:45;;;;;;;59.42;55.03;;;;;;;5.46;100.00;100261.53;5113876;27;20048;-78
2022/12/12 15:01:17;;;;;;;57.72;53.97;;;;;;;5.36;100.00;100257.56;5114969;28;20051;-79
2022/12/12 15:03:49;;;;;;;58.33;54.35;;;;;;;5.40;100.00;100262.28;5129860;27;20108;-78
2022/12/12 15:06:28;;;;;;;56.58;52.58;;;;;;;5.47;100.00;100263.16;5116387;27;20040;-82
2022/12/12 15:09:07;;;;;;;58.50;53.95;;;;;;;5.30;100.00;100268.84;5122488;28;20585;-77
2022/12/12 15:11:43;;;;;;;62.50;56.97;;;;;;;5.26;100.00;100276.25;5108473;28;20048;-82
2022/12/12 15:14:22;;;;;;;65.07;59.42;;;;;;;5.27;100.00;100278.72;5099249;28;20051;-83
2022/12/12 15:17:01;;;;;;;59.90;55.05;;;;;;;5.00;100.00;100285.44;5092284;28;20048;-78
2022/12/12 15:19:36;;;;;;;60.08;54.88;;;;;;;5.13;100.00;100286.63;5095626;28;20052;-82
2022/12/12 15:22:10;;;;;;;61.28;56.38;;;;;;;5.17;100.00;100293.13;5095142;28;20064;-82
2022/12/12 15:24:39;;;;;;;66.55;60.67;;;;;;;5.14;100.00;100286.41;5100233;28;20481;-78
2022/12/12 15:27:18;;;;;;;63.70;58.03;;;;;;;5.19;100.00;100299.06;5098540;28;20052;-81
2022/12/12 15:29:49;;;;;;;61.17;55.72;;;;;;;5.08;100.00;100305.56;5097414;28;20054;-84
2022/12/12 15:32:18;;;;;;;59.42;54.53;;;;;;;5.15;100.00;100303.88;5084298;28;20049;-78
2022/12/12 15:34:48;;;;;;;58.00;53.35;;;;;;;5.17;100.00;100312.38;5090252;28;20113;-82
2022/12/12 15:37:30;;;;;;;61.97;57.00;;;;;;;4.98;100.00;100312.91;5113579;28;20069;-78
2022/12/12 15:40:16;;;;;;;60.22;55.47;;;;;;;5.07;100.00;100314.47;5092319;28;20040;-80
2022/12/12 15:42:50;;;;;;;59.63;55.08;;;;;;;5.23;100.00;100313.47;5101159;28;20048;-79
2022/12/12 15:45:22;;;;;;;65.18;59.22;;;;;;;5.19;100.00;100314.84;5095670;28;20361;-79
2022/12/12 15:47:52;;;;;;;60.22;55.60;;;;;;;5.04;100.00;100315.66;5092596;28;20396;-78
2022/12/12 15:50:50;;;;;;;59.85;55.28;;;;;;;5.07;100.00;100317.09;5090692;28;20127;-78
2022/12/12 15:53:21;;;;;;;58.83;54.20;;;;;;;5.04;100.00;100334.06;5094100;28;20464;-78
2022/12/12 15:55:57;;;;;;;62.67;56.85;;;;;;;4.96;100.00;100343.84;5087431;28;20047;-78
2022/12/12 15:58:30;;;;;;;64.60;58.75;;;;;;;5.02;100.00;100337.88;5079384;28;20063;-79
2022/12/12 16:01:06;;;;;;;60.85;55.30;;;;;;;4.99;100.00;100339.06;5086576;28;20054;-79
2022/12/12 16:03:34;;;;;;;55.53;51.00;;;;;;;4.88;100.00;100336.06;5096436;28;20048;-81
2022/12/12 16:06:16;;;;;;;57.20;52.67;;;;;;;4.95;100.00;100327.25;5108514;28;20109;-81
2022/12/12 16:08:52;;;;;;;55.20;50.80;;;;;;;4.75;100.00;100341.88;5090581;28;20048;-82
2022/12/12 16:11:44;;;;;;;55.22;51.03;;;;;;;4.74;100.00;100335.81;5095918;28;20110;-81
2022/12/12 16:14:28;;;;;;;56.23;51.50;;;;;;;4.81;100.00;100344.66;5102105;28;20479;-81
2022/12/12 16:16:58;;;;;;;56.28;51.92;;;;;;;4.78;100.00;100341.53;5090103;28;20305;-82
2022/12/12 16:19:36;;;;;;;58.35;53.47;;;;;;;4.71;100.00;100341.44;5087074;28;20053;-80
2022/12/12 16:22:08;;;;;;;59.08;54.28;;;;;;;4.79;100.00;100349.25;5097349;28;20476;-82
2022/12/12 16:24:46;;;;;;;59.65;54.72;;;;;;;4.69;100.00;100347.84;5100761;28;20324;-83
2022/12/12 16:27:13;;;;;;;57.22;52.42;;;;;;;4.72;100.00;100347.50;5085918;28;20056;-78
2022/12/12 16:29:39;;;;;;;60.70;55.55;;;;;;;4.72;100.00;100344.88;5092839;28;20097;-77
2022/12/12 16:32:06;;;;;;;60.47;55.58;;;;;;;4.60;100.00;100349.75;5103821;28;20116;-77
2022/12/12 16:34:33;;;;;;;56.92;52.33;;;;;;;4.68;100.00;100356.75;5088778;28;20552;-81
2022/12/12 16:37:00;;;;;;;58.08;53.38;;;;;;;4.62;100.00;100367.97;5101792;28;20113;-78
2022/12/12 16:39:28;;;;;;;57.17;52.50;;;;;;;4.50;100.00;100367.56;5096668;28;20396;-78
2022/12/12 16:41:55;;;;;;;57.03;52.25;;;;;;;4.50;100.00;100378.91;5088307;28;20047;-78
2022/12/12 16:44:22;;;;;;;57.88;52.90;;;;;;;4.61;100.00;100380.31;5093557;28;20063;-82
2022/12/12 16:46:50;;;;;;;58.58;54.05;;;;;;;4.98;100.00;100378.72;5100124;28;20108;-82
2022/12/12 16:49:19;;;;;;;56.78;52.28;;;;;;;4.90;100.00;100390.16;5093137;28;20044;-78
2022/12/12 16:51:46;;;;;;;55.45;50.90;;;;;;;5.01;100.00;100389.69;5102507;28;20083;-82
2022/12/12 16:54:16;;;;;;;58.65;54.20;;;;;;;4.80;100.00;100400.88;5099115;28;20039;-78
2022/12/12 16:56:51;;;;;;;54.28;50.70;;;;;;;5.81;100.00;100387.44;5095094;28;20385;-82
2022/12/12 16:59:18;;;;;;;57.17;52.95;;;;;;;5.32;100.00;100399.31;5100945;28;20511;-79
2022/12/12 17:01:45;;;;;;;58.65;54.45;;;;;;;5.46;100.00;100411.69;5104452;28;20135;-78
2022/12/12 17:04:20;;;;;;;56.80;52.50;;;;;;;4.75;100.00;100411.16;5092389;28;20388;-77
2022/12/12 17:06:47;;;;;;;58.03;53.92;;;;;;;5.26;100.00;100419.28;5082611;28;20170;-83
2022/12/12 17:09:14;;;;;;;71.78;66.75;;;;;;;4.64;100.00;100421.25;5094331;28;20047;-81
2022/12/12 17:11:40;;;;;;;77.43;72.00;;;;;;;4.24;100.00;100429.19;5092576;28;20044;-82
2022/12/12 17:14:16;;;;;;;74.40;69.13;;;;;;;4.57;100.00;100432.47;5092324;28;20056;-82
2022/12/12 17:16:45;;;;;;;76.30;71.13;;;;;;;3.77;100.00;100448.38;5094911;28;20048;-78
2022/12/12 17:19:12;;;;;;;55.50;51.75;;;;;;;3.92;100.00;100438.00;5096679;28;20048;-82
2022/12/12 17:21:39;;;;;;;52.08;48.78;;;;;;;3.75;100.00;100442.50;5101575;28;20059;-82
2022/12/12 17:24:06;;;;;;;51.47;48.10;;;;;;;4.10;100.00;100443.84;5100358;28;20462;-81
2022/12/12 17:26:33;;;;;;;53.60;49.75;;;;;;;3.75;100.00;100445.13;5102787;28;20047;-81
2022/12/12 17:29:00;;;;;;;57.20;53.33;;;;;;;3.54;100.00;100453.53;5092289;28;20052;-82
2022/12/12 17:31:28;;;;;;;54.80;51.05;;;;;;;3.49;100.00;100445.34;5092420;28;20472;-78
2022/12/12 17:33:55;;;;;;;53.22;49.22;;;;;;;3.88;100.00;100463.81;5086543;28;20036;-82
2022/12/12 17:36:24;;;;;;;52.25;48.58;;;;;;;4.05;100.00;100454.03;5097115;28;20052;-81
2022/12/12 17:38:51;;;;;;;55.80;51.92;;;;;;;3.55;100.00;100459.59;5084849;28;20500;-77
2022/12/12 17:41:19;;;;;;;52.45;48.50;;;;;;;3.30;100.00;100464.03;5099708;28;20385;-82
2022/12/12 17:43:46;;;;;;;56.47;52.28;;;;;;;3.43;100.00;100454.69;5096185;28;20096;-81
2022/12/12 17:46:14;;;;;;;52.25;48.45;;;;;;;3.07;100.00;100454.19;5106022;28;20047;-77
2022/12/12 17:48:44;;;;;;;51.83;47.47;;;;;;;3.62;100.00;100463.19;5092834;28;20544;-79
2022/12/12 17:51:13;;;;;;;49.28;45.45;;;;;;;3.12;100.00;100451.09;5100414;28;20052;-83
2022/12/12 17:53:39;;;;;;;50.63;46.90;;;;;;;2.79;100.00;100445.81;5087224;28;20055;-80
2022/12/12 17:56:08;;;;;;;51.50;47.88;;;;;;;3.34;100.00;100444.38;5081073;28;20048;-79
2022/12/12 17:58:36;;;;;;;52.13;48.42;;;;;;;2.80;100.00;100447.44;5094200;28;20105;-81
2022/12/12 18:01:09;;;;;;;55.13;50.90;;;;;;;2.98;100.00;100463.06;5091622;28;20051;-78
2022/12/12 18:03:37;;;;;;;50.47;46.67;;;;;;;2.70;100.00;100458.09;5083533;28;20113;-81
2022/12/12 18:06:17;;;;;;;50.63;46.63;;;;;;;2.73;100.00;100457.78;5095666;28;20044;-82
2022/12/12 18:08:54;;;;;;;46.22;42.63;;;;;;;2.45;100.00;100459.00;5092996;28;20055;-81
2022/12/12 18:11:37;;;;;;;49.03;45.38;;;;;;;2.34;100.00;100461.94;5097682;28;20123;-78
2022/12/12 18:14:07;;;;;;;51.88;48.00;;;;;;;2.65;100.00;100464.81;5092082;28;20582;-81
2022/12/12 18:16:35;;;;;;;45.42;42.17;;;;;;;2.41;100.00;100474.22;5093357;28;20442;-77
2022/12/12 18:19:03;;;;;;;45.95;42.65;;;;;;;2.42;100.00;100481.13;5088092;28;20048;-83
2022/12/12 18:21:34;;;;;;;50.15;46.17;;;;;;;2.32;100.00;100483.03;5092455;28;20819;-78
2022/12/12 18:24:02;;;;;;;46.83;43.13;;;;;;;2.35;100.00;100495.00;5089517;28;20468;-83
2022/12/12 18:26:28;;;;;;;45.15;41.65;;;;;;;2.46;100.00;100485.06;5089589;28;20048;-82
2022/12/12 18:28:57;;;;;;;47.60;44.03;;;;;;;2.37;100.00;100496.50;5099159;28;20059;-78
2022/12/12 18:31:27;;;;;;;48.25;44.50;;;;;;;2.34;100.00;100494.19;5093639;28;20044;-81
2022/12/12 18:33:54;;;;;;;50.83;46.92;;;;;;;2.50;100.00;100496.06;5066194;28;20051;-79
2022/12/12 18:36:25;;;;;;;46.78;43.08;;;;;;;2.43;100.00;100495.88;5029579;28;20556;-82
2022/12/12 18:38:54;;;;;;;53.40;49.15;;;;;;;2.77;100.00;100492.38;5071214;28;20045;-79
2022/12/12 18:41:21;;;;;;;56.45;51.85;;;;;;;2.78;100.00;100488.75;5076584;28;20056;-79
2022/12/12 18:43:48;;;;;;;53.05;48.42;;;;;;;2.71;100.00;100488.56;5074039;28;20133;-78
2022/12/12 18:46:17;;;;;;;51.17;47.03;;;;;;;2.55;100.00;100491.16;5078394;28;20060;-82
2022/12/12 18:48:46;;;;;;;49.80;45.75;;;;;;;2.41;100.00;100503.06;5078207;28;20427;-82
2022/12/12 18:51:14;;;;;;;47.42;43.72;;;;;;;2.23;100.00;100495.28;5075199;28;20059;-78
2022/12/12 18:53:42;;;;;;;47.63;43.53;;;;;;;2.57;100.00;100496.22;5078270;28;20097;-82
2022/12/12 18:56:12;;;;;;;48.08;44.30;;;;;;;2.72;100.00;100503.34;5082500;28;20298;-82
2022/12/12 18:58:39;;;;;;;51.17;46.88;;;;;;;2.52;100.00;100515.06;5070885;28;20118;-81
2022/12/12 19:01:07;;;;;;;49.85;45.63;;;;;;;2.51;100.00;100516.88;5090680;28;20055;-81
2022/12/12 19:03:34;;;;;;;49.70;45.17;;;;;;;2.65;100.00;100525.13;5082812;28;20496;-78
2022/12/12 19:06:04;;;;;;;51.05;46.85;;;;;;;2.27;100.00;100525.47;5088910;28;20118;-79
2022/12/12 19:08:33;;;;;;;49.85;45.70;;;;;;;2.17;100.00;100527.34;5082331;28;20044;-81
2022/12/12 19:10:59;;;;;;;47.65;43.85;;;;;;;2.38;100.00;100516.47;5084444;28;20527;-78
2022/12/12 19:13:28;;;;;;;49.30;45.30;;;;;;;2.20;100.00;100529.66;5071649;28;20044;-82
2022/12/12 19:15:56;;;;;;;49.80;45.85;;;;;;;1.94;100.00;100527.06;5071602;28;20040;-79
2022/12/12 19:18:23;;;;;;;52.40;48.53;;;;;;;2.21;100.00;100522.63;5066853;28;20452;-79
2022/12/12 19:20:52;;;;;;;48.90;44.92;;;;;;;2.53;100.00;100527.19;5067493;28;20446;-78
2022/12/12 19:23:19;;;;;;;49.00;44.90;;;;;;;2.20;100.00;100537.53;5068777;28;20532;-82
2022/12/12 19:25:46;;;;;;;45.13;41.92;;;;;;;1.96;100.00;100535.59;5067471;28;20048;-82
2022/12/12 19:28:15;;;;;;;45.58;42.25;;;;;;;2.07;100.00;100539.75;5067438;28;20121;-79
2022/12/12 19:30:43;;;;;;;45.40;42.13;;;;;;;1.93;100.00;100549.00;5065467;28;20048;-79
2022/12/12 19:33:10;;;;;;;45.95;42.85;;;;;;;1.76;100.00;100549.88;5069091;28;20118;-78
2022/12/12 19:35:44;;;;;;;45.42;42.17;;;;;;;2.20;100.00;100560.28;5072756;28;20105;-82
2022/12/12 19:38:11;;;;;;;44.63;41.30;;;;;;;2.05;100.00;100555.63;5074350;28;20066;-81
2022/12/12 19:40:38;;;;;;;40.55;37.67;;;;;;;1.88;100.00;100559.13;5076496;28;20131;-77
2022/12/12 19:43:06;;;;;;;41.88;38.95;;;;;;;1.72;100.00;100559.81;5072879;28;20051;-79
2022/12/12 19:45:32;;;;;;;40.25;37.35;;;;;;;1.74;100.00;100568.34;5079571;28;20537;-83
2022/12/12 19:48:01;;;;;;;40.72;37.95;;;;;;;1.68;100.00;100561.09;5073017;28;20422;-78
2022/12/12 19:50:28;;;;;;;41.08;37.88;;;;;;;1.90;100.00;100558.97;5077187;28;20071;-78
2022/12/12 19:52:54;;;;;;;41.95;38.85;;;;;;;1.88;100.00;100568.78;5073339;28;20516;-81
2022/12/12 19:55:21;;;;;;;38.95;36.25;;;;;;;1.92;100.00;100575.34;5073730;28;20083;-79
2022/12/12 19:57:48;;;;;;;41.42;38.42;;;;;;;2.24;100.00;100572.09;5072668;28;20169;-80
2022/12/12 20:00:18;;;;;;;41.80;38.70;;;;;;;2.06;100.00;100577.44;5075499;28;20574;-82
2022/12/12 20:02:45;;;;;;;41.90;38.92;;;;;;;1.83;100.00;100571.84;5074248;28;20129;-81
2022/12/12 20:05:13;;;;;;;43.05;39.85;;;;;;;1.89;100.00;100583.50;5074300;28;20048;-81
2022/12/12 20:07:41;;;;;;;42.53;39.65;;;;;;;2.23;100.00;100587.00;5068241;28;20044;-81
2022/12/12 20:10:09;;;;;;;42.53;39.83;;;;;;;1.45;100.00;100580.84;5067308;28;20045;-80
2022/12/12 20:12:38;;;;;;;43.05;40.35;;;;;;;1.29;100.00;100590.19;5079620;28;20048;-81
2022/12/12 20:15:11;;;;;;;43.00;40.00;;;;;;;1.04;100.00;100581.28;5075443;28;20048;-77
2022/12/12 20:17:38;;;;;;;40.03;37.33;;;;;;;1.11;100.00;100597.19;5078605;28;20370;-81
2022/12/12 20:20:06;;;;;;;40.60;37.65;;;;;;;1.18;100.00;100593.03;5076007;28;20143;-81
2022/12/12 20:22:34;;;;;;;41.95;39.03;;;;;;;1.64;100.00;100596.41;5076020;28;20461;-77
2022/12/12 20:25:01;;;;;;;40.65;37.95;;;;;;;1.58;100.00;100602.25;5079125;28;20044;-82
2022/12/12 20:27:33;;;;;;;40.70;38.00;;;;;;;1.10;100.00;100613.88;5084606;28;20198;-82
2022/12/12 20:30:03;;;;;;;40.53;37.92;;;;;;;1.37;100.00;100620.88;5077731;28;20055;-81
2022/12/12 20:32:30;;;;;;;39.83;37.22;;;;;;;1.08;100.00;100616.63;5070672;28;20040;-79
2022/12/12 20:34:56;;;;;;;40.88;38.05;;;;;;;1.08;100.00;100627.09;5060842;28;20045;-78
2022/12/12 20:37:23;;;;;;;37.75;35.35;;;;;;;1.33;100.00;100622.13;5065366;28;20048;-78
2022/12/12 20:39:52;;;;;;;37.42;34.92;;;;;;;0.97;100.00;100619.47;5068696;28;20213;-78
2022/12/12 20:42:19;;;;;;;38.72;36.22;;;;;;;1.10;100.00;100613.88;5069438;28;20515;-81
2022/12/12 20:44:46;;;;;;;39.20;36.60;;;;;;;1.12;100.00;100630.22;5080265;28;20469;-81